Time;durP1;ratioP1;P1;durP2;ratioP2;P2;SDS_P1;SDS_P2;PMS_P1;PMS_P2;Temp;Humidity;BMP_temperature;BMP_pressure;BME280_temperature;BME280_humidity;BME280_pressure;Samples;Min_cycle;Max_cycle;Signal;HPM_P1;HPM_P2
2021/07/25 00:00:10;;;;;;;22.05;19.55;;;18.60;98.30;;;;;;5054474;28;20466;-65
2021/07/25 00:02:36;;;;;;;22.38;18.98;;;18.60;98.40;;;;;;5054395;28;20025;-65
2021/07/25 00:05:03;;;;;;;20.60;18.40;;;18.60;98.40;;;;;;5054873;28;20017;-65
2021/07/25 00:07:28;;;;;;;25.70;21.13;;;18.60;98.40;;;;;;5057579;28;20095;-65
2021/07/25 00:09:54;;;;;;;22.05;19.63;;;18.60;98.50;;;;;;5066537;28;20103;-65
2021/07/25 00:12:19;;;;;;;23.42;18.65;;;18.70;98.60;;;;;;5067874;28;20013;-64
2021/07/25 00:14:45;;;;;;;21.40;17.55;;;18.70;98.60;;;;;;5054332;28;20071;-65
2021/07/25 00:17:11;;;;;;;23.05;18.35;;;18.70;98.60;;;;;;5052557;28;20474;-65
2021/07/25 00:19:37;;;;;;;18.25;16.25;;;18.70;98.50;;;;;;5053740;28;20477;-65
2021/07/25 00:22:06;;;;;;;22.08;18.40;;;18.80;98.60;;;;;;5054330;28;20044;-65
2021/07/25 00:24:34;;;;;;;;;;;18.90;98.50;;;;;;5057836;28;20020;-65
2021/07/25 00:27:00;;;;;;;16.70;14.15;;;18.80;98.40;;;;;;5054598;28;20276;-65
2021/07/25 00:29:30;;;;;;;20.13;15.88;;;18.90;98.50;;;;;;5055523;28;20043;-65
2021/07/25 00:32:04;;;;;;;16.90;15.10;;;18.90;98.40;;;;;;5052554;28;20017;-64
2021/07/25 00:34:33;;;;;;;18.33;15.98;;;19.00;98.40;;;;;;5054168;28;20017;-65
2021/07/25 00:36:59;;;;;;;18.90;16.02;;;19.00;98.40;;;;;;5051546;28;20108;-65
2021/07/25 00:39:25;;;;;;;18.77;16.45;;;19.00;98.40;;;;;;5053201;28;20128;-65
2021/07/25 00:41:51;;;;;;;20.33;15.95;;;19.00;98.40;;;;;;5056289;28;20112;-65
2021/07/25 00:44:18;;;;;;;18.75;16.38;;;19.00;98.40;;;;;;5054691;28;20091;-65
2021/07/25 00:46:53;;;;;;;16.95;15.10;;;19.00;98.30;;;;;;5052511;28;20074;-65
2021/07/25 00:49:18;;;;;;;19.90;16.52;;;19.10;98.40;;;;;;5054975;28;20029;-65
2021/07/25 00:51:44;;;;;;;18.95;16.00;;;19.00;98.30;;;;;;5054719;28;20025;-65
2021/07/25 00:54:10;;;;;;;17.38;15.05;;;19.00;98.40;;;;;;5055695;28;20036;-65
2021/07/25 00:56:35;;;;;;;17.20;15.18;;;19.10;98.40;;;;;;5053850;28;20021;-65
2021/07/25 00:59:01;;;;;;;18.70;15.25;;;19.10;98.40;;;;;;5054030;28;20017;-65
2021/07/25 01:01:27;;;;;;;20.27;15.57;;;19.10;98.30;;;;;;5051818;28;20024;-65
2021/07/25 01:04:24;;;;;;;18.60;15.63;;;19.00;98.30;;;;;;5051735;28;20017;-65
2021/07/25 01:06:58;;;;;;;17.90;14.70;;;19.10;98.30;;;;;;5053476;28;20021;-65
2021/07/25 01:09:33;;;;;;;17.27;14.93;;;19.00;98.40;;;;;;5054876;28;20074;-65
2021/07/25 01:12:04;;;;;;;17.33;14.68;;;19.10;98.40;;;;;;5053746;28;20066;-65
2021/07/25 01:14:32;;;;;;;18.77;15.65;;;19.00;98.40;;;;;;5053323;28;20397;-64
2021/07/25 01:17:22;;;;;;;20.08;15.05;;;19.00;98.40;;;;;;5052855;28;20034;-65
2021/07/25 01:19:49;;;;;;;19.08;16.95;;;19.10;98.40;;;;;;5055114;28;20399;-65
2021/07/25 01:22:15;;;;;;;28.58;23.38;;;18.90;98.50;;;;;;5052927;28;20025;-65
2021/07/25 01:24:41;;;;;;;37.60;28.10;;;18.90;98.70;;;;;;5056685;28;20079;-64
2021/07/25 01:27:10;;;;;;;28.48;24.52;;;18.70;99.10;;;;;;5052481;28;20804;-64
2021/07/25 01:29:38;;;;;;;27.15;23.10;;;18.70;99.30;;;;;;5054642;28;20486;-65
2021/07/25 01:32:04;;;;;;;23.88;21.30;;;18.60;99.40;;;;;;5052950;28;20086;-64
2021/07/25 01:34:31;;;;;;;28.52;23.55;;;18.60;99.50;;;;;;5053168;28;20036;-65
2021/07/25 01:36:59;;;;;;;25.50;21.55;;;18.60;99.50;;;;;;5052124;28;20017;-65
2021/07/25 01:39:26;;;;;;;26.10;20.58;;;18.60;99.60;;;;;;5052392;28;20165;-64
2021/07/25 01:41:52;;;;;;;28.20;23.58;;;18.60;99.60;;;;;;5055420;28;20021;-65
2021/07/25 01:44:17;;;;;;;24.88;22.10;;;18.50;99.70;;;;;;5052824;28;20110;-65
2021/07/25 01:46:43;;;;;;;25.85;22.58;;;18.50;99.80;;;;;;5052103;28;20485;-65
2021/07/25 01:49:08;;;;;;;27.75;23.08;;;18.50;99.80;;;;;;5054081;28;20025;-64
2021/07/25 01:51:34;;;;;;;26.60;23.45;;;18.40;99.90;;;;;;5054064;28;20394;-64
2021/07/25 01:54:00;;;;;;;29.50;25.15;;;18.30;99.90;;;;;;5055292;28;20052;-65
2021/07/25 01:56:25;;;;;;;28.42;24.83;;;18.30;99.90;;;;;;5052986;28;20060;-65
2021/07/25 01:58:51;;;;;;;25.02;21.85;;;18.20;99.90;;;;;;5052481;28;20551;-65
2021/07/25 02:01:16;;;;;;;21.77;19.02;;;18.20;99.90;;;;;;5052216;28;20500;-65
2021/07/25 02:03:42;;;;;;;19.55;17.40;;;18.20;99.90;;;;;;5050396;28;20021;-65
2021/07/25 02:06:07;;;;;;;18.33;16.30;;;18.30;99.90;;;;;;5054123;28;20631;-65
2021/07/25 02:08:33;;;;;;;22.73;19.90;;;18.30;99.90;;;;;;5053856;28;20075;-65
2021/07/25 02:10:58;;;;;;;27.60;21.25;;;18.30;99.90;;;;;;5055098;28;20478;-65
2021/07/25 02:13:24;;;;;;;24.77;21.55;;;18.20;99.90;;;;;;5052915;28;20059;-64
2021/07/25 02:15:51;;;;;;;23.27;19.05;;;18.10;99.90;;;;;;5069016;28;20031;-64
2021/07/25 02:18:17;;;;;;;21.92;18.17;;;18.20;99.90;;;;;;5054519;28;20017;-65
2021/07/25 02:20:42;;;;;;;19.50;15.60;;;18.20;99.90;;;;;;5070000;28;20028;-65
2021/07/25 02:23:09;;;;;;;17.67;15.45;;;18.20;99.90;;;;;;5072036;28;20036;-65
2021/07/25 02:25:34;;;;;;;16.05;14.40;;;18.20;99.90;;;;;;5057602;28;20021;-64
2021/07/25 02:28:00;;;;;;;17.73;15.30;;;18.20;99.90;;;;;;5057722;28;20071;-65
2021/07/25 02:30:25;;;;;;;19.98;15.55;;;18.20;99.90;;;;;;5056680;28;20025;-64
2021/07/25 02:32:51;;;;;;;17.42;14.55;;;18.20;99.90;;;;;;5057114;28;20024;-65
2021/07/25 02:35:17;;;;;;;15.43;12.70;;;18.10;99.90;;;;;;5055825;28;20076;-64
2021/07/25 02:37:42;;;;;;;14.95;12.80;;;18.20;99.90;;;;;;5055686;28;20029;-64
2021/07/25 02:40:08;;;;;;;14.82;12.18;;;18.20;99.90;;;;;;5057599;28;20079;-65
2021/07/25 02:42:34;;;;;;;14.20;11.88;;;18.20;99.90;;;;;;5057160;28;20036;-65
2021/07/25 02:44:59;;;;;;;15.75;11.48;;;18.30;99.90;;;;;;5056448;28;20037;-64
2021/07/25 02:47:25;;;;;;;15.02;12.35;;;18.30;99.90;;;;;;5054851;28;20382;-65
2021/07/25 02:49:50;;;;;;;19.08;16.25;;;18.30;99.90;;;;;;5057460;28;20017;-65
2021/07/25 02:52:16;;;;;;;21.38;18.00;;;18.20;99.90;;;;;;5059313;28;20092;-64
2021/07/25 02:54:41;;;;;;;20.42;16.45;;;18.10;99.90;;;;;;5056674;28;20478;-64
2021/07/25 02:57:07;;;;;;;22.20;18.60;;;18.00;99.90;;;;;;5056013;28;20037;-65
2021/07/25 02:59:33;;;;;;;23.50;19.02;;;17.90;99.90;;;;;;5055682;28;20498;-65
2021/07/25 03:01:58;;;;;;;25.17;19.73;;;17.80;99.90;;;;;;5055514;28;20040;-65
2021/07/25 03:04:24;;;;;;;23.35;18.67;;;17.70;99.90;;;;;;5056079;28;20115;-65
2021/07/25 03:06:49;;;;;;;22.45;20.15;;;17.60;99.90;;;;;;5057138;28;20021;-64
2021/07/25 03:09:15;;;;;;;22.85;19.48;;;17.60;99.90;;;;;;5058866;28;20070;-64
2021/07/25 03:11:41;;;;;;;22.27;18.20;;;17.50;99.90;;;;;;5055987;28;20021;-64
2021/07/25 03:14:07;;;;;;;18.30;16.20;;;17.50;99.90;;;;;;5056158;28;20048;-65
2021/07/25 03:16:33;;;;;;;22.17;18.40;;;17.50;99.90;;;;;;5055254;28;20501;-65
2021/07/25 03:18:58;;;;;;;22.80;19.23;;;17.50;99.90;;;;;;5053885;28;20035;-64
2021/07/25 03:21:24;;;;;;;22.35;18.88;;;17.50;99.90;;;;;;5054273;28;20100;-64
2021/07/25 03:23:50;;;;;;;23.40;18.95;;;17.50;99.90;;;;;;5059599;28;20033;-65
2021/07/25 03:26:15;;;;;;;21.88;18.42;;;17.50;99.90;;;;;;5057768;28;20024;-65
2021/07/25 03:28:41;;;;;;;26.63;20.25;;;17.40;99.90;;;;;;5055254;28;20025;-65
2021/07/25 03:31:06;;;;;;;23.55;19.92;;;17.40;99.90;;;;;;5056775;28;20025;-64
2021/07/25 03:33:32;;;;;;;27.58;22.85;;;17.40;99.90;;;;;;5054979;28;20521;-65
2021/07/25 03:35:57;;;;;;;24.23;20.73;;;17.40;99.90;;;;;;5054934;28;20509;-65
2021/07/25 03:38:23;;;;;;;23.92;19.60;;;17.30;99.90;;;;;;5054138;28;20029;-65
2021/07/25 03:40:49;;;;;;;22.80;19.67;;;17.30;99.90;;;;;;5056545;28;20025;-65
2021/07/25 03:43:15;;;;;;;23.92;19.95;;;17.30;99.90;;;;;;5057865;28;20044;-65
2021/07/25 03:45:43;;;;;;;22.17;18.33;;;17.30;99.90;;;;;;5053440;28;20499;-65
2021/07/25 03:48:08;;;;;;;22.02;17.77;;;17.30;99.90;;;;;;5053986;28;20017;-65
2021/07/25 03:50:35;;;;;;;23.25;17.88;;;17.30;99.90;;;;;;5056100;28;20032;-64
2021/07/25 03:53:01;;;;;;;24.90;20.77;;;17.20;99.90;;;;;;5055854;28;20025;-64
2021/07/25 03:55:26;;;;;;;27.80;19.67;;;17.20;99.90;;;;;;5066779;28;20106;-64
2021/07/25 03:57:53;;;;;;;23.73;19.15;;;17.10;99.90;;;;;;5055172;28;20036;-65
2021/07/25 04:00:19;;;;;;;27.17;19.80;;;17.00;99.90;;;;;;5055146;28;20040;-64
2021/07/25 04:02:44;;;;;;;26.55;20.00;;;16.90;99.90;;;;;;5053741;28;20025;-64
2021/07/25 04:05:10;;;;;;;21.60;18.92;;;16.90;99.90;;;;;;5052425;28;20021;-64
2021/07/25 04:07:36;;;;;;;26.35;20.25;;;16.80;99.90;;;;;;5055783;28;20017;-64
2021/07/25 04:10:02;;;;;;;21.80;19.20;;;16.80;99.90;;;;;;5055364;28;20127;-64
2021/07/25 04:12:28;;;;;;;23.77;18.42;;;16.80;99.90;;;;;;5056930;28;20036;-64
2021/07/25 04:14:53;;;;;;;21.38;17.30;;;16.90;99.90;;;;;;5054489;28;20021;-65
2021/07/25 04:17:19;;;;;;;18.67;15.63;;;16.90;99.90;;;;;;5054992;28;20044;-65
2021/07/25 04:19:44;;;;;;;17.08;14.25;;;17.00;99.90;;;;;;5053510;28;20025;-64
2021/07/25 04:22:10;;;;;;;15.02;13.05;;;17.00;99.90;;;;;;5053318;28;20489;-64
2021/07/25 04:24:35;;;;;;;14.45;12.18;;;17.10;99.90;;;;;;5055453;28;20031;-64
2021/07/25 04:27:01;;;;;;;16.20;11.45;;;17.10;99.90;;;;;;5055083;28;20025;-64
2021/07/25 04:29:51;;;;;;;16.98;12.88;;;17.20;99.90;;;;;;5055691;28;20017;-64
2021/07/25 04:32:17;;;;;;;14.90;12.43;;;17.20;99.90;;;;;;5054374;28;20023;-65
2021/07/25 04:34:44;;;;;;;14.95;12.38;;;17.20;99.90;;;;;;5054855;28;20017;-64
2021/07/25 04:37:21;;;;;;;15.02;12.27;;;17.20;99.90;;;;;;5053333;28;20527;-65
2021/07/25 04:39:48;;;;;;;15.98;12.27;;;17.30;99.90;;;;;;5052965;28;20031;-65
2021/07/25 04:42:16;;;;;;;13.13;11.18;;;17.30;99.90;;;;;;5055106;28;20024;-64
2021/07/25 04:44:53;;;;;;;15.65;11.90;;;17.40;99.90;;;;;;5055225;28;20130;-65
2021/07/25 04:47:23;;;;;;;12.38;10.98;;;17.40;99.90;;;;;;5053556;28;20029;-64
2021/07/25 04:50:02;;;;;;;12.75;11.00;;;17.40;99.90;;;;;;5052544;28;20123;-64
2021/07/25 04:52:35;;;;;;;13.45;11.73;;;17.40;99.90;;;;;;5054887;28;20021;-64
2021/07/25 04:55:01;;;;;;;16.90;12.68;;;17.40;99.90;;;;;;5054320;28;20482;-64
2021/07/25 04:57:33;;;;;;;13.15;11.77;;;17.40;99.90;;;;;;5055648;28;20017;-64
2021/07/25 05:00:00;;;;;;;12.90;11.52;;;17.40;99.90;;;;;;5053342;28;20054;-65
2021/07/25 05:02:26;;;;;;;15.82;11.45;;;17.30;99.90;;;;;;5053856;28;20048;-64
2021/07/25 05:04:52;;;;;;;12.07;9.43;;;17.30;99.90;;;;;;5052450;28;20129;-64
2021/07/25 05:07:18;;;;;;;12.40;9.82;;;17.40;99.90;;;;;;5054496;28;20092;-64
2021/07/25 05:09:43;;;;;;;12.75;11.05;;;17.40;99.90;;;;;;5054582;28;20474;-65
2021/07/25 05:12:25;;;;;;;12.80;10.07;;;17.40;99.90;;;;;;5054244;28;20420;-65
2021/07/25 05:15:11;;;;;;;14.00;9.65;;;17.50;99.90;;;;;;5055482;28;20017;-64
2021/07/25 05:18:06;;;;;;;9.02;7.57;;;17.50;99.90;;;;;;5054106;28;20032;-64
2021/07/25 05:20:56;;;;;;;8.82;7.88;;;17.60;99.90;;;;;;5055394;28;20044;-64
2021/07/25 05:23:31;;;;;;;14.27;9.35;;;17.70;99.90;;;;;;5052432;28;20017;-64
2021/07/25 05:25:57;;;;;;;9.77;7.35;;;17.80;99.90;;;;;;5056197;28;20025;-64
2021/07/25 05:28:23;;;;;;;9.93;8.52;;;17.90;99.90;;;;;;5055018;28;20021;-65
2021/07/25 05:30:53;;;;;;;11.32;8.95;;;18.00;99.90;;;;;;5053444;28;20021;-64
2021/07/25 05:33:22;;;;;;;11.98;10.10;;;18.00;99.90;;;;;;5053157;28;20111;-65
2021/07/25 05:35:49;;;;;;;10.68;8.70;;;18.00;99.90;;;;;;5053226;28;20028;-65
2021/07/25 05:38:18;;;;;;;12.10;9.15;;;18.10;99.90;;;;;;5052701;28;20017;-65
2021/07/25 05:40:44;;;;;;;;;;;18.10;99.90;;;;;;5052109;28;20081;-65
2021/07/25 05:43:10;;;;;;;10.85;9.23;;;18.10;99.90;;;;;;5055369;28;20316;-65
2021/07/25 05:45:36;;;;;;;11.55;10.35;;;18.10;99.90;;;;;;5052599;28;20494;-65
2021/07/25 05:48:01;;;;;;;10.68;9.00;;;18.10;99.90;;;;;;5058272;28;20120;-64
2021/07/25 05:50:28;;;;;;;11.68;9.30;;;18.20;99.90;;;;;;5056314;28;20048;-64
2021/07/25 05:52:56;;;;;;;11.10;9.07;;;18.20;99.90;;;;;;5060463;28;20025;-64
2021/07/25 05:55:26;;;;;;;10.82;9.40;;;18.30;99.90;;;;;;5067993;28;20029;-64
2021/07/25 05:57:52;;;;;;;9.75;7.55;;;18.30;99.90;;;;;;5064078;28;20025;-65
2021/07/25 06:00:18;;;;;;;10.60;9.10;;;18.40;99.90;;;;;;5073569;28;20073;-64
2021/07/25 06:02:50;;;;;;;12.07;10.27;;;18.50;99.90;;;;;;5058808;28;20058;-64
2021/07/25 06:05:16;;;;;;;10.30;9.10;;;18.50;99.90;;;;;;5072974;28;20556;-64
2021/07/25 06:07:41;;;;;;;10.65;9.55;;;18.50;99.90;;;;;;5070883;28;20104;-65
2021/07/25 06:10:07;;;;;;;11.90;9.32;;;18.50;99.90;;;;;;5078829;28;20028;-64
2021/07/25 06:12:35;;;;;;;13.85;10.85;;;18.50;99.90;;;;;;5072547;28;20021;-64
2021/07/25 06:15:00;;;;;;;12.60;9.77;;;18.50;99.90;;;;;;5058007;28;20052;-64
2021/07/25 06:17:26;;;;;;;13.80;11.27;;;18.50;99.90;;;;;;5072872;28;20024;-64
2021/07/25 06:19:51;;;;;;;11.95;10.35;;;18.60;99.90;;;;;;5078214;28;20020;-64
2021/07/25 06:22:17;;;;;;;11.35;9.73;;;18.60;99.90;;;;;;5077479;28;20100;-64
2021/07/25 06:24:42;;;;;;;12.90;9.70;;;18.60;99.90;;;;;;5077546;28;20024;-64
2021/07/25 06:27:08;;;;;;;11.25;9.40;;;18.60;99.90;;;;;;5077499;28;20103;-65
2021/07/25 06:29:33;;;;;;;11.85;8.00;;;18.70;99.90;;;;;;5078744;28;20020;-64
2021/07/25 06:31:59;;;;;;;9.18;8.18;;;18.80;99.90;;;;;;5077169;28;20032;-64
2021/07/25 06:34:24;;;;;;;10.32;9.23;;;18.80;99.90;;;;;;5078183;28;20090;-64
2021/07/25 06:36:50;;;;;;;11.93;10.30;;;18.90;99.90;;;;;;5078240;28;20031;-64
2021/07/25 06:39:15;;;;;;;11.32;8.55;;;19.00;99.90;;;;;;5077509;28;20150;-65
2021/07/25 06:41:41;;;;;;;9.95;7.90;;;19.00;99.90;;;;;;5063000;28;20367;-64
2021/07/25 06:44:06;;;;;;;8.38;6.97;;;19.10;99.90;;;;;;5076074;28;20056;-64
2021/07/25 06:46:32;;;;;;;9.23;7.63;;;19.20;99.90;;;;;;5077891;28;20012;-64
2021/07/25 06:48:58;;;;;;;9.05;6.53;;;19.30;99.90;;;;;;5073976;28;20031;-64
2021/07/25 06:51:23;;;;;;;9.48;7.95;;;19.30;99.90;;;;;;5077886;28;20025;-64
2021/07/25 06:53:50;;;;;;;11.45;7.38;;;19.40;99.80;;;;;;5078112;28;20020;-64
2021/07/25 06:56:15;;;;;;;8.48;6.88;;;19.50;99.60;;;;;;5076354;28;20026;-64
2021/07/25 06:58:41;;;;;;;7.30;5.30;;;19.60;99.50;;;;;;5074473;28;20103;-64
2021/07/25 07:01:09;;;;;;;12.57;9.27;;;19.70;99.40;;;;;;5073078;28;20485;-64
2021/07/25 07:03:36;;;;;;;10.80;8.13;;;19.80;99.10;;;;;;5074603;28;20036;-64
2021/07/25 07:06:06;;;;;;;8.43;7.25;;;19.90;99.00;;;;;;5069794;28;20147;-64
2021/07/25 07:08:32;;;;;;;11.48;7.30;;;20.00;98.80;;;;;;5054879;28;20021;-64
2021/07/25 07:10:57;;;;;;;10.63;8.60;;;20.10;98.70;;;;;;5054631;28;20031;-64
2021/07/25 07:13:23;;;;;;;12.45;9.57;;;20.10;98.50;;;;;;5061945;28;20033;-65
2021/07/25 07:15:49;;;;;;;11.88;9.70;;;20.20;98.30;;;;;;5074662;28;20029;-64
2021/07/25 07:18:16;;;;;;;11.55;8.38;;;20.20;98.10;;;;;;5074245;28;20473;-65
2021/07/25 07:20:56;;;;;;;9.38;8.05;;;20.20;98.00;;;;;;5074917;28;20155;-64
2021/07/25 07:23:24;;;;;;;9.50;7.78;;;20.30;98.00;;;;;;5065624;28;20020;-64
2021/07/25 07:25:51;;;;;;;10.63;8.57;;;20.40;97.90;;;;;;5074378;28;20023;-64
2021/07/25 07:28:20;;;;;;;13.23;10.27;;;20.40;97.70;;;;;;5074210;28;20036;-64
2021/07/25 07:30:47;;;;;;;10.25;9.05;;;20.50;97.30;;;;;;5074682;28;20117;-64
2021/07/25 07:33:17;;;;;;;11.43;9.13;;;20.50;97.20;;;;;;5074657;28;20032;-65
2021/07/25 07:35:43;;;;;;;10.07;7.93;;;20.60;97.10;;;;;;5074783;28;20032;-64
2021/07/25 07:38:11;;;;;;;10.48;9.05;;;20.70;97.10;;;;;;5073366;28;20082;-64
2021/07/25 07:40:38;;;;;;;11.57;9.65;;;20.70;96.70;;;;;;5074695;28;20043;-64
2021/07/25 07:43:05;;;;;;;9.48;7.32;;;20.80;96.60;;;;;;5062660;28;20036;-65
2021/07/25 07:45:31;;;;;;;10.65;8.18;;;20.90;96.50;;;;;;5065480;28;20024;-64
2021/07/25 07:47:56;;;;;;;7.68;6.88;;;20.90;96.30;;;;;;5074067;28;20077;-64
2021/07/25 07:50:22;;;;;;;7.90;6.78;;;21.00;96.00;;;;;;5074450;28;20055;-64
2021/07/25 07:52:48;;;;;;;8.15;5.60;;;21.10;95.80;;;;;;5074216;28;20040;-64
2021/07/25 07:55:14;;;;;;;7.40;5.50;;;21.20;95.80;;;;;;5074346;28;20092;-64
2021/07/25 07:57:40;;;;;;;6.18;5.57;;;21.30;95.70;;;;;;5074170;28;20432;-64
2021/07/25 08:00:07;;;;;;;8.52;6.90;;;21.30;95.50;;;;;;5074094;28;20025;-65
2021/07/25 08:02:34;;;;;;;8.73;7.30;;;21.40;95.00;;;;;;5070599;28;20013;-64
2021/07/25 08:05:01;;;;;;;9.85;7.25;;;21.50;94.50;;;;;;5069831;28;20029;-65
2021/07/25 08:07:37;;;;;;;8.10;6.32;;;21.50;94.20;;;;;;5065425;28;20028;-64
2021/07/25 08:10:04;;;;;;;9.10;7.75;;;21.60;94.00;;;;;;5072363;28;20036;-64
2021/07/25 08:12:30;;;;;;;8.32;7.22;;;21.60;93.80;;;;;;5072070;28;20016;-65
2021/07/25 08:14:55;;;;;;;7.68;6.05;;;21.60;93.80;;;;;;5073774;28;20024;-64
2021/07/25 08:17:21;;;;;;;9.23;8.18;;;21.80;93.90;;;;;;5073896;28;20397;-64
2021/07/25 08:19:46;;;;;;;9.32;8.10;;;21.80;93.60;;;;;;5073700;28;20028;-65
2021/07/25 08:22:12;;;;;;;8.98;7.25;;;21.90;93.50;;;;;;5073452;28;20029;-64
2021/07/25 08:24:39;;;;;;;6.57;5.85;;;22.00;93.50;;;;;;5073238;28;20032;-65
2021/07/25 08:27:09;;;;;;;9.05;5.95;;;22.00;93.50;;;;;;5068095;28;20497;-65
2021/07/25 08:29:46;;;;;;;8.80;6.25;;;22.10;93.30;;;;;;5073549;28;20078;-64
2021/07/25 08:32:12;;;;;;;5.68;4.65;;;22.20;92.90;;;;;;5073430;28;20469;-64
2021/07/25 08:34:38;;;;;;;8.55;5.80;;;22.30;92.80;;;;;;5071322;28;20044;-64
2021/07/25 08:37:46;;;;;;;7.03;5.05;;;22.30;92.70;;;;;;5068626;28;20020;-65
2021/07/25 08:47:26;;;;;;;6.20;5.07;;;22.40;91.80;;;;;;4999015;28;20040;-65
2021/07/25 08:49:58;;;;;;;6.32;4.65;;;22.50;91.90;;;;;;5071785;28;20047;-65
2021/07/25 08:52:27;;;;;;;5.97;4.30;;;22.60;91.70;;;;;;5073194;28;20492;-65
2021/07/25 08:54:54;;;;;;;6.03;5.35;;;22.70;91.60;;;;;;5073136;28;20035;-65
2021/07/25 08:57:50;;;;;;;;;;;;;;;;;;;;;
2021/07/25 09:00:19;;;;;;;9.75;7.30;;;23.00;91.00;;;;;;5056463;28;20013;-65
2021/07/25 09:02:45;;;;;;;11.27;7.68;;;23.10;90.60;;;;;;5052297;28;20029;-65
2021/07/25 09:05:11;;;;;;;9.48;7.82;;;23.10;90.10;;;;;;5052311;28;20022;-65
2021/07/25 09:08:11;;;;;;;;;;;;;;;;;;;;;
2021/07/25 09:15:17;;;;;;;5.35;4.78;;;23.30;90.30;;;;;;5006024;28;20490;-65
2021/07/25 09:17:43;;;;;;;8.65;5.50;;;23.50;90.40;;;;;;5035880;28;20029;-65
2021/07/25 09:20:23;;;;;;;10.48;7.75;;;23.70;90.10;;;;;;5050854;28;20454;-65
2021/07/25 09:22:48;;;;;;;8.63;6.80;;;23.80;88.90;;;;;;5052461;28;20041;-65
2021/07/25 09:25:19;;;;;;;9.07;6.57;;;23.90;88.20;;;;;;5050225;28;20047;-65
2021/07/25 09:27:45;;;;;;;8.82;7.38;;;23.90;87.80;;;;;;5052871;28;20070;-65
2021/07/25 09:30:21;;;;;;;10.27;8.63;;;23.90;87.00;;;;;;5052154;28;20017;-65
2021/07/25 09:32:49;;;;;;;12.77;8.20;;;23.90;86.60;;;;;;5052007;28;20017;-65
2021/07/25 09:35:25;;;;;;;8.57;7.68;;;23.90;87.40;;;;;;5065631;28;20028;-65
2021/07/25 09:37:52;;;;;;;7.28;6.00;;;23.90;87.50;;;;;;5051652;28;20385;-65
2021/07/25 09:40:41;;;;;;;5.60;4.90;;;23.90;87.70;;;;;;5052044;28;20026;-65
2021/07/25 09:43:09;;;;;;;6.03;4.53;;;24.10;86.90;;;;;;5051936;28;20024;-65
2021/07/25 09:45:55;;;;;;;6.25;4.25;;;24.20;86.40;;;;;;5052110;28;20040;-66
2021/07/25 09:48:22;;;;;;;5.65;3.85;;;24.40;85.40;;;;;;5051922;28;20032;-65
2021/07/25 09:50:49;;;;;;;4.15;3.67;;;24.50;85.40;;;;;;5051919;28;20048;-65
2021/07/25 09:53:16;;;;;;;4.10;3.50;;;24.50;85.00;;;;;;5052598;28;20017;-65
2021/07/25 09:58:57;;;;;;;5.40;4.22;;;24.80;82.80;;;;;;5046730;28;20083;-65
2021/07/25 10:01:40;;;;;;;4.10;3.47;;;24.90;82.40;;;;;;5051749;28;20541;-65
2021/07/25 10:04:21;;;;;;;7.35;4.30;;;24.90;81.70;;;;;;5051822;28;20112;-65
2021/07/25 10:06:56;;;;;;;7.53;4.63;;;24.90;79.90;;;;;;5064463;28;20056;-65
2021/07/25 10:09:23;;;;;;;4.50;3.75;;;24.90;79.50;;;;;;5051997;28;20021;-65
2021/07/25 10:12:03;;;;;;;4.55;3.85;;;25.10;80.20;;;;;;5051136;28;20017;-65
2021/07/25 10:14:31;;;;;;;5.63;3.65;;;25.40;79.80;;;;;;5051861;28;20025;-65
2021/07/25 10:16:59;;;;;;;3.80;3.17;;;25.50;79.40;;;;;;5051665;28;20019;-65
2021/07/25 10:19:58;;;;;;;4.77;3.17;;;25.60;78.90;;;;;;5066913;28;20028;-65
2021/07/25 10:22:28;;;;;;;4.85;3.13;;;25.80;78.80;;;;;;5062954;28;20037;-66
2021/07/25 10:24:57;;;;;;;3.63;3.25;;;26.00;78.60;;;;;;5072066;28;20517;-66
2021/07/25 10:30:19;;;;;;;3.30;2.80;;;26.20;78.00;;;;;;5058834;28;20036;-65
2021/07/25 10:32:48;;;;;;;3.33;3.03;;;26.30;78.00;;;;;;5054737;28;20017;-65
2021/07/25 10:35:14;;;;;;;5.05;3.70;;;26.50;77.60;;;;;;5052373;28;20013;-66
2021/07/25 10:37:44;;;;;;;5.03;4.05;;;26.50;76.50;;;;;;5055164;28;20040;-66
2021/07/25 10:40:12;;;;;;;5.75;3.60;;;26.50;75.10;;;;;;5053968;28;20035;-66
2021/07/25 10:42:48;;;;;;;7.15;4.20;;;26.50;74.90;;;;;;5054213;28;20025;-65
2021/07/25 10:45:13;;;;;;;5.72;3.88;;;26.50;74.10;;;;;;5061554;28;20486;-66
2021/07/25 10:47:39;;;;;;;3.80;3.40;;;26.50;74.00;;;;;;5070451;28;20082;-66
2021/07/25 10:50:20;;;;;;;5.55;3.88;;;26.70;73.20;;;;;;5075631;28;20025;-66
2021/07/25 10:52:55;;;;;;;3.92;3.42;;;26.70;73.30;;;;;;5074129;28;20016;-66
2021/07/25 10:55:41;;;;;;;5.70;3.58;;;26.60;72.00;;;;;;5070802;28;20049;-66
2021/07/25 10:58:08;;;;;;;4.93;3.53;;;26.60;71.60;;;;;;5061470;28;20058;-65
2021/07/25 11:01:39;;;;;;;;;;;;;;;;;;;;;
2021/07/25 11:04:05;;;;;;;5.57;3.60;;;26.50;73.10;;;;;;5052242;28;20037;-66
2021/07/25 11:06:30;;;;;;;4.90;3.08;;;26.60;72.60;;;;;;5054775;28;20106;-66
2021/07/25 11:08:56;;;;;;;3.25;2.95;;;26.60;71.00;;;;;;5057714;28;20024;-66
2021/07/25 11:11:39;;;;;;;4.88;3.38;;;26.70;71.30;;;;;;5062130;28;20471;-65
2021/07/25 11:14:06;;;;;;;4.00;3.17;;;26.80;70.80;;;;;;5054579;28;20021;-66
2021/07/25 11:16:32;;;;;;;6.78;2.50;;;26.90;70.60;;;;;;5060737;28;20021;-66
2021/07/25 11:18:59;;;;;;;3.15;2.03;;;27.00;70.10;;;;;;5074094;28;20533;-66
2021/07/25 11:21:33;;;;;;;3.08;2.15;;;27.20;68.90;;;;;;5074973;28;20529;-66
2021/07/25 11:23:58;;;;;;;4.70;2.65;;;27.40;69.00;;;;;;5074704;28;20035;-66
2021/07/25 11:26:38;;;;;;;3.55;2.70;;;27.40;68.60;;;;;;5074940;28;20020;-66
2021/07/25 11:29:07;;;;;;;3.83;2.50;;;27.40;68.40;;;;;;5074795;28;20100;-66
2021/07/25 11:31:33;;;;;;;5.95;3.72;;;27.30;68.30;;;;;;5074975;28;20024;-66
2021/07/25 11:33:58;;;;;;;3.83;2.90;;;27.30;68.40;;;;;;5073453;28;20038;-66
2021/07/25 11:36:24;;;;;;;3.72;2.80;;;27.30;68.80;;;;;;5073586;28;20020;-66
2021/07/25 11:39:00;;;;;;;3.00;2.35;;;27.40;69.00;;;;;;5074381;28;20020;-66
2021/07/25 11:41:31;;;;;;;4.05;2.63;;;27.70;68.80;;;;;;5072029;28;20024;-66
2021/07/25 11:44:05;;;;;;;3.22;2.10;;;27.90;68.30;;;;;;5072143;28;20025;-66
2021/07/25 11:46:34;;;;;;;2.97;1.85;;;28.20;68.20;;;;;;5070556;28;20033;-67
2021/07/25 11:49:12;;;;;;;3.22;2.33;;;28.40;67.50;;;;;;5069143;28;20025;-66
2021/07/25 11:51:45;;;;;;;3.80;2.50;;;28.50;66.00;;;;;;5064868;28;20025;-66
2021/07/25 11:54:17;;;;;;;4.50;2.90;;;28.30;64.90;;;;;;5058927;28;20048;-66
2021/07/25 11:57:07;;;;;;;4.60;2.70;;;28.20;63.60;;;;;;5070623;28;20028;-66
2021/07/25 11:59:54;;;;;;;4.55;2.75;;;28.00;64.70;;;;;;5061016;28;20021;-66
2021/07/25 12:02:23;;;;;;;3.00;2.03;;;27.80;64.70;;;;;;5059860;28;20261;-66
2021/07/25 12:04:55;;;;;;;4.95;2.67;;;27.70;65.20;;;;;;5062430;28;20137;-66
2021/07/25 12:07:36;;;;;;;4.00;2.17;;;27.70;64.80;;;;;;5066115;28;20020;-66
2021/07/25 12:10:04;;;;;;;3.38;2.65;;;27.80;65.30;;;;;;5063481;28;20032;-66
2021/07/25 12:12:36;;;;;;;3.55;2.55;;;27.60;64.90;;;;;;5060006;28;20021;-66
2021/07/25 12:15:31;;;;;;;3.72;2.45;;;27.70;65.30;;;;;;5066078;28;20504;-66
2021/07/25 12:18:06;;;;;;;4.35;1.83;;;27.90;64.20;;;;;;5068761;28;20039;-67
2021/07/25 12:20:33;;;;;;;3.58;1.90;;;28.10;63.30;;;;;;5073073;28;20032;-66
2021/07/25 12:23:03;;;;;;;2.38;1.77;;;28.30;62.70;;;;;;5072836;28;20035;-66
2021/07/25 12:25:33;;;;;;;2.90;1.85;;;28.30;61.30;;;;;;5072004;28;20023;-66
2021/07/25 12:28:09;;;;;;;2.55;1.65;;;28.50;60.40;;;;;;5072791;28;20525;-66
2021/07/25 12:30:45;;;;;;;3.45;1.60;;;28.80;60.20;;;;;;5072955;28;20055;-66
2021/07/25 12:33:13;;;;;;;2.50;1.63;;;29.00;59.10;;;;;;5071502;28;20382;-66
2021/07/25 12:35:39;;;;;;;1.83;1.50;;;29.10;58.60;;;;;;5073003;28;20111;-66
2021/07/25 12:38:12;;;;;;;4.13;1.80;;;29.30;58.30;;;;;;5073018;28;20582;-66
2021/07/25 12:41:00;;;;;;;2.55;1.70;;;29.40;57.50;;;;;;5072891;28;20089;-66
2021/07/25 12:43:56;;;;;;;2.55;1.45;;;29.30;56.50;;;;;;5073197;28;20074;-66
2021/07/25 12:46:28;;;;;;;1.75;1.00;;;29.50;56.90;;;;;;5073073;28;20576;-67
2021/07/25 12:49:05;;;;;;;2.28;1.60;;;29.90;57.00;;;;;;5072832;28;20035;-66
2021/07/25 12:51:41;;;;;;;4.05;2.00;;;29.90;55.20;;;;;;5072498;28;20017;-66
2021/07/25 12:54:07;;;;;;;2.08;1.40;;;29.80;55.70;;;;;;5073007;28;20498;-66
2021/07/25 12:56:33;;;;;;;1.90;1.30;;;29.60;56.30;;;;;;5072688;28;20083;-66
2021/07/25 13:00:00;;;;;;;2.78;1.45;;;29.60;56.30;;;;;;5071483;28;20099;-66
2021/07/25 13:05:09;;;;;;;2.47;1.55;;;29.30;56.40;;;;;;5072077;28;20044;-66
2021/07/25 13:07:35;;;;;;;2.83;1.60;;;29.10;56.70;;;;;;5072670;28;20024;-66
2021/07/25 13:10:13;;;;;;;3.03;1.70;;;29.00;57.10;;;;;;5072697;28;20055;-66
2021/07/25 13:12:39;;;;;;;;;;;28.90;57.10;;;;;;5073317;28;20470;-66